Time,TemperatureF,DewpointF,PressureIn,WindDirection,WindDirectionDegrees,WindSpeedMPH,WindSpeedGustMPH,Humidity,HourlyPrecipIn,Conditions,Clouds,dailyrainin,SoftwareType,DateUTC
2013-01-08 00:28:00,25.1,19.0,30.63,NNW,344,2.0,5.0,78,0.00,,,0.00,weatherlink.com 1.10,2013-01-08 05:28:00,
2013-01-08 00:43:00,25.9,20.0,30.63,SSW,205,0.0,5.0,78,0.00,,,0.00,weatherlink.com 1.10,2013-01-08 05:43:00,
2013-01-08 00:58:00,25.6,20.0,30.63,West,269,0.0,4.0,79,0.00,,,0.00,weatherlink.com 1.10,2013-01-08 05:58:00,
2013-01-08 01:13:00,25.9,20.0,30.62,NW,305,0.0,4.0,77,0.00,,,0.00,weatherlink.com 1.10,2013-01-08 06:13:00,
2013-01-08 01:29:00,26.4,20.0,30.62,NE,50,1.0,4.0,77,0.00,,,0.00,weatherlink.com 1.10,2013-01-08 06:29:00,
2013-01-08 01:44:00,27.5,21.0,30.62,NNE,13,3.0,9.0,75,0.00,,,0.00,weatherlink.com 1.10,2013-01-08 06:44:00,
2013-01-08 01:59:00,26.7,20.0,30.62,NW,308,0.0,5.0,75,0.00,,,0.00,weatherlink.com 1.10,2013-01-08 06:59:00,
2013-01-08 02:14:00,26.2,20.0,30.62,WNW,295,0.0,3.0,77,0.00,,,0.00,weatherlink.com 1.10,2013-01-08 07:14:00,
2013-01-08 02:29:00,25.7,19.0,30.61,NW,319,2.0,4.0,76,0.00,,,0.00,weatherlink.com 1.10,2013-01-08 07:29:00,
2013-01-08 02:44:00,25.9,19.0,30.61,North,6,2.0,6.0,75,0.00,,,0.00,weatherlink.com 1.10,2013-01-08 07:44:00,
2013-01-08 02:59:00,24.6,18.0,30.61,NNW,332,3.0,5.0,75,0.00,,,0.00,weatherlink.com 1.10,2013-01-08 07:59:00,
2013-01-08 03:14:00,23.4,18.0,30.61,NNW,340,3.0,5.0,81,0.00,,,0.00,weatherlink.com 1.10,2013-01-08 08:14:00,
2013-01-08 03:29:00,22.1,18.0,30.61,NNW,345,3.0,4.0,83,0.00,,,0.00,weatherlink.com 1.10,2013-01-08 08:29:00,
2013-01-08 03:44:00,21.0,17.0,30.60,WNW,303,1.0,4.0,84,0.00,,,0.00,weatherlink.com 1.10,2013-01-08 08:44:00,
2013-01-08 03:59:00,20.6,17.0,30.60,NNW,328,1.0,4.0,85,0.00,,,0.00,weatherlink.com 1.10,2013-01-08 08:59:00,
2013-01-08 04:14:00,20.0,16.0,30.60,NNW,333,2.0,4.0,85,0.00,,,0.00,weatherlink.com 1.10,2013-01-08 09:14:00,
2013-01-08 04:29:00,20.2,17.0,30.61,NNW,334,3.0,5.0,86,0.00,,,0.00,weatherlink.com 1.10,2013-01-08 09:29:00,
2013-01-08 04:44:00,21.1,18.0,30.61,NW,325,2.0,6.0,86,0.00,,,0.00,weatherlink.com 1.10,2013-01-08 09:44:00,
2013-01-08 04:59:00,21.8,19.0,30.61,North,5,4.0,7.0,87,0.00,,,0.00,weatherlink.com 1.10,2013-01-08 09:59:00,
2013-01-08 05:14:00,21.3,18.0,30.61,West,281,1.0,7.0,85,0.00,,,0.00,weatherlink.com 1.10,2013-01-08 10:14:00,
2013-01-08 05:29:00,20.4,17.0,30.61,NW,323,3.0,4.0,85,0.00,,,0.00,weatherlink.com 1.10,2013-01-08 10:29:00,
2013-01-08 05:44:00,21.4,18.0,30.62,NNW,340,5.0,9.0,86,0.00,,,0.00,weatherlink.com 1.10,2013-01-08 10:44:00,
2013-01-08 05:59:00,22.0,18.0,30.62,NNW,335,3.0,7.0,83,0.00,,,0.00,weatherlink.com 1.10,2013-01-08 10:59:00,
2013-01-08 06:14:00,21.7,18.0,30.63,NNW,338,3.0,6.0,84,0.00,,,0.00,weatherlink.com 1.10,2013-01-08 11:14:00,
2013-01-08 06:29:00,21.7,17.0,30.64,WNW,303,2.0,5.0,83,0.00,,,0.00,weatherlink.com 1.10,2013-01-08 11:29:00,
2013-01-08 06:44:00,20.8,18.0,30.64,NW,321,3.0,5.0,87,0.00,,,0.00,weatherlink.com 1.10,2013-01-08 11:44:00,
2013-01-08 06:59:00,20.6,17.0,30.64,NNW,344,4.0,5.0,87,0.00,,,0.00,weatherlink.com 1.10,2013-01-08 11:59:00,
2013-01-08 07:14:00,20.9,18.0,30.65,NNW,345,3.0,7.0,87,0.00,,,0.00,weatherlink.com 1.10,2013-01-08 12:14:00,
2013-01-08 07:29:00,21.1,18.0,30.65,NNW,327,5.0,7.0,87,0.00,,,0.00,weatherlink.com 1.10,2013-01-08 12:29:00,
2013-01-08 07:44:00,21.5,18.0,30.66,NNW,330,5.0,6.0,87,0.00,,,0.00,weatherlink.com 1.10,2013-01-08 12:44:00,
2013-01-08 07:59:00,23.1,19.0,30.66,North,5,3.0,6.0,85,0.00,,,0.00,weatherlink.com 1.10,2013-01-08 12:59:00,
2013-01-08 08:14:00,25.4,20.0,30.66,NNW,347,3.0,7.0,81,0.00,,,0.00,weatherlink.com 1.10,2013-01-08 13:14:00,
2013-01-08 08:29:00,26.6,21.0,30.66,NW,326,3.0,5.0,79,0.00,,,0.00,weatherlink.com 1.10,2013-01-08 13:29:00,
2013-01-08 08:44:00,28.4,22.0,30.67,NNW,342,0.0,2.0,77,0.00,,,0.00,weatherlink.com 1.10,2013-01-08 13:44:00,
2013-01-08 08:59:00,31.9,24.0,30.67,SSE,155,0.0,3.0,72,0.00,,,0.00,weatherlink.com 1.10,2013-01-08 13:59:00,
2013-01-08 09:15:00,34.9,23.0,30.67,North,352,3.0,3.0,63,0.00,,,0.00,weatherlink.com 1.10,2013-01-08 14:15:00,
2013-01-08 09:30:00,35.8,25.0,30.67,SW,217,2.0,2.0,65,0.00,,,0.00,weatherlink.com 1.10,2013-01-08 14:30:00,
2013-01-08 09:45:00,34.7,23.0,30.68,North,353,3.0,7.0,62,0.00,,,0.00,weatherlink.com 1.10,2013-01-08 14:45:00,
2013-01-08 10:00:00,34.6,23.0,30.68,East,84,2.0,7.0,63,0.00,,,0.00,weatherlink.com 1.10,2013-01-08 15:00:00,
2013-01-08 10:15:00,36.3,23.0,30.68,WSW,250,2.0,8.0,59,0.00,,,0.00,weatherlink.com 1.10,2013-01-08 15:15:00,
2013-01-08 10:30:00,37.4,23.0,30.67,SW,220,0.0,5.0,57,0.00,,,0.00,weatherlink.com 1.10,2013-01-08 15:30:00,
2013-01-08 10:45:00,37.3,24.0,30.67,West,281,1.0,5.0,58,0.00,,,0.00,weatherlink.com 1.10,2013-01-08 15:45:00,
2013-01-08 11:00:00,38.1,23.0,30.66,SSW,210,2.0,5.0,55,0.00,,,0.00,weatherlink.com 1.10,2013-01-08 16:00:00,
2013-01-08 11:15:00,37.6,22.0,30.65,SW,221,2.0,5.0,53,0.00,,,0.00,weatherlink.com 1.10,2013-01-08 16:15:00,
2013-01-08 11:30:00,39.4,22.0,30.65,NE,44,1.0,5.0,51,0.00,,,0.00,weatherlink.com 1.10,2013-01-08 16:30:00,
2013-01-08 11:45:00,37.9,22.0,30.64,ENE,57,2.0,5.0,54,0.00,,,0.00,weatherlink.com 1.10,2013-01-08 16:45:00,
2013-01-08 12:00:00,38.4,22.0,30.64,NNW,330,1.0,7.0,53,0.01,,,0.01,weatherlink.com 1.10,2013-01-08 17:00:00,
2013-01-08 12:15:00,38.8,23.0,30.64,East,97,2.0,4.0,54,0.01,,,0.01,weatherlink.com 1.10,2013-01-08 17:15:00,
2013-01-08 12:30:00,39.6,23.0,30.63,North,357,0.0,6.0,51,0.01,,,0.01,weatherlink.com 1.10,2013-01-08 17:30:00,
2013-01-08 12:45:00,39.8,22.0,30.62,NNW,347,1.0,6.0,50,0.02,,,0.02,weatherlink.com 1.10,2013-01-08 17:45:00,
2013-01-08 13:00:00,39.9,22.0,30.63,WNW,303,0.0,6.0,49,0.01,,,0.02,weatherlink.com 1.10,2013-01-08 18:00:00,
2013-01-08 13:15:00,40.0,23.0,30.63,SSW,200,3.0,6.0,50,0.01,,,0.02,weatherlink.com 1.10,2013-01-08 18:15:00,
2013-01-08 13:45:00,40.8,23.0,30.63,SW,229,0.0,5.0,49,0.01,,,0.03,weatherlink.com 1.10,2013-01-08 18:45:00,
2013-01-08 14:00:00,41.4,22.0,30.62,NNW,341,3.0,5.0,47,0.01,,,0.03,weatherlink.com 1.10,2013-01-08 19:00:00,
2013-01-08 14:15:00,42.3,22.0,30.62,SW,217,0.0,3.0,45,0.01,,,0.03,weatherlink.com 1.10,2013-01-08 19:15:00,
2013-01-08 14:30:00,41.2,21.0,30.63,SSW,212,2.0,6.0,45,0.00,,,0.03,weatherlink.com 1.10,2013-01-08 19:30:00,
2013-01-08 14:45:00,40.4,21.0,30.63,North,350,2.0,6.0,46,0.01,,,0.04,weatherlink.com 1.10,2013-01-08 19:45:00,
2013-01-08 15:00:00,39.9,20.0,30.63,NE,37,3.0,5.0,45,0.01,,,0.04,weatherlink.com 1.10,2013-01-08 20:00:00,
2013-01-08 15:15:00,39.4,21.0,30.63,South,181,1.0,7.0,47,0.01,,,0.04,weatherlink.com 1.10,2013-01-08 20:15:00,
2013-01-08 15:30:00,38.2,23.0,30.64,NNE,23,1.0,4.0,54,0.01,,,0.04,weatherlink.com 1.10,2013-01-08 20:30:00,
2013-01-08 15:45:00,34.9,23.0,30.64,NNW,331,2.0,4.0,61,0.00,,,0.04,weatherlink.com 1.10,2013-01-08 20:45:00,
2013-01-08 16:00:00,33.5,21.0,30.64,NW,326,2.0,4.0,61,0.00,,,0.04,weatherlink.com 1.10,2013-01-08 21:00:00,
2013-01-08 16:15:00,32.0,22.0,30.64,NNW,330,2.0,5.0,67,0.00,,,0.04,weatherlink.com 1.10,2013-01-08 21:15:00,
2013-01-08 16:30:00,31.2,22.0,30.65,NW,312,1.0,4.0,68,0.00,,,0.04,weatherlink.com 1.10,2013-01-08 21:30:00,
2013-01-08 16:45:00,30.6,22.0,30.65,NNW,342,3.0,5.0,69,0.00,,,0.04,weatherlink.com 1.10,2013-01-08 21:45:00,
2013-01-08 17:00:00,30.0,22.0,30.65,NNW,329,4.0,5.0,72,0.00,,,0.04,weatherlink.com 1.10,2013-01-08 22:00:00,
2013-01-08 17:15:00,30.4,22.0,30.65,NNW,335,3.0,5.0,70,0.00,,,0.04,weatherlink.com 1.10,2013-01-08 22:15:00,
2013-01-08 17:30:00,29.4,22.0,30.66,NNW,335,3.0,5.0,73,0.00,,,0.04,weatherlink.com 1.10,2013-01-08 22:30:00,
2013-01-08 17:45:00,29.5,22.0,30.65,NNW,328,4.0,5.0,72,0.00,,,0.04,weatherlink.com 1.10,2013-01-08 22:45:00,
2013-01-08 18:00:00,29.5,21.0,30.66,NW,326,4.0,5.0,71,0.00,,,0.04,weatherlink.com 1.10,2013-01-08 23:00:00,
2013-01-08 18:15:00,29.1,21.0,30.66,NNW,339,3.0,5.0,73,0.00,,,0.04,weatherlink.com 1.10,2013-01-08 23:15:00,
2013-01-08 18:30:00,28.8,22.0,30.66,NNW,331,3.0,4.0,74,0.00,,,0.04,weatherlink.com 1.10,2013-01-08 23:30:00,
2013-01-08 18:45:00,28.7,21.0,30.67,NNW,330,3.0,4.0,74,0.00,,,0.04,weatherlink.com 1.10,2013-01-08 23:45:00,
2013-01-08 19:00:00,28.4,21.0,30.68,NNW,331,4.0,5.0,75,0.00,,,0.04,weatherlink.com 1.10,2013-01-09 00:00:00,
2013-01-08 19:15:00,28.3,21.0,30.68,NNW,330,2.0,5.0,74,0.00,,,0.04,weatherlink.com 1.10,2013-01-09 00:15:00,
2013-01-08 19:30:00,28.7,21.0,30.69,WNW,299,2.0,5.0,73,0.00,,,0.04,weatherlink.com 1.10,2013-01-09 00:30:00,
2013-01-08 19:45:00,28.4,21.0,30.69,NNW,345,2.0,5.0,74,0.00,,,0.04,weatherlink.com 1.10,2013-01-09 00:45:00,
2013-01-08 20:00:00,28.0,21.0,30.69,NNW,338,3.0,4.0,76,0.00,,,0.04,weatherlink.com 1.10,2013-01-09 01:00:00,
2013-01-08 20:15:00,27.8,21.0,30.69,NNW,335,4.0,5.0,76,0.00,,,0.04,weatherlink.com 1.10,2013-01-09 01:15:00,
2013-01-08 20:30:00,28.1,21.0,30.68,NNW,335,4.0,4.0,76,0.00,,,0.04,weatherlink.com 1.10,2013-01-09 01:30:00,
2013-01-08 20:45:00,27.9,22.0,30.68,NW,325,3.0,4.0,77,0.00,,,0.04,weatherlink.com 1.10,2013-01-09 01:45:00,
2013-01-08 21:00:00,27.5,21.0,30.68,NNW,333,3.0,3.0,76,0.00,,,0.04,weatherlink.com 1.10,2013-01-09 02:00:00,
2013-01-08 21:15:00,27.3,21.0,30.68,NNW,331,2.0,4.0,77,0.00,,,0.04,weatherlink.com 1.10,2013-01-09 02:15:00,
2013-01-08 21:30:00,27.5,21.0,30.68,NNW,328,2.0,3.0,77,0.00,,,0.04,weatherlink.com 1.10,2013-01-09 02:30:00,
2013-01-08 21:45:00,27.1,21.0,30.69,NW,323,1.0,4.0,78,0.00,,,0.04,weatherlink.com 1.10,2013-01-09 02:45:00,
2013-01-08 22:00:00,27.0,21.0,30.69,NNW,333,3.0,5.0,78,0.00,,,0.04,weatherlink.com 1.10,2013-01-09 03:00:00,
2013-01-08 22:16:00,27.0,21.0,30.70,NNW,330,3.0,4.0,77,0.00,,,0.04,weatherlink.com 1.10,2013-01-09 03:16:00,
2013-01-08 22:31:00,26.9,21.0,30.70,NNW,329,4.0,5.0,79,0.00,,,0.04,weatherlink.com 1.10,2013-01-09 03:31:00,
2013-01-08 22:46:00,27.4,22.0,30.69,NNW,335,3.0,4.0,79,0.00,,,0.04,weatherlink.com 1.10,2013-01-09 03:46:00,
2013-01-08 23:01:00,27.7,22.0,30.69,NNW,331,0.0,4.0,78,0.00,,,0.04,weatherlink.com 1.10,2013-01-09 04:01:00,
2013-01-08 23:16:00,26.8,21.0,30.69,NNW,331,0.0,1.0,80,0.00,,,0.04,weatherlink.com 1.10,2013-01-09 04:16:00,
2013-01-08 23:31:00,27.1,22.0,30.70,NNW,330,1.0,3.0,80,0.00,,,0.04,weatherlink.com 1.10,2013-01-09 04:31:00,
2013-01-08 23:46:00,26.9,22.0,30.70,NNW,330,1.0,2.0,80,0.00,,,0.04,weatherlink.com 1.10,2013-01-09 04:46:00,